createdAt,value
2018-01-27T00:00:17.588Z,99.90
2018-01-27T00:02:44.511Z,99.90
2018-01-27T00:05:10.765Z,99.90
2018-01-27T00:07:37.690Z,99.90
2018-01-27T00:10:03.967Z,99.90
2018-01-27T00:12:30.143Z,99.90
2018-01-27T00:14:56.402Z,99.90
2018-01-27T00:17:23.360Z,99.90
2018-01-27T00:19:50.333Z,99.90
2018-01-27T00:22:16.518Z,99.90
2018-01-27T00:24:43.447Z,99.90
2018-01-27T00:27:09.656Z,99.90
2018-01-27T00:29:35.835Z,99.90
2018-01-27T00:32:03.119Z,99.90
2018-01-27T00:34:29.311Z,99.90
2018-01-27T00:36:56.271Z,99.90
2018-01-27T00:39:22.450Z,99.90
2018-01-27T00:41:48.663Z,99.90
2018-01-27T00:44:14.840Z,99.90
2018-01-27T00:46:41.823Z,99.90
2018-01-27T00:49:08.003Z,99.90
2018-01-27T00:51:34.483Z,99.90
2018-01-27T00:54:00.667Z,99.90
2018-01-27T00:56:26.875Z,99.90
2018-01-27T00:58:53.055Z,99.90
2018-01-27T01:01:19.526Z,99.90
2018-01-27T01:03:45.703Z,99.90
2018-01-27T01:06:12.626Z,99.90
2018-01-27T01:08:39.111Z,99.90
2018-01-27T01:11:05.291Z,99.90
2018-01-27T01:13:31.504Z,99.90
2018-01-27T01:15:57.690Z,99.90
2018-01-27T01:18:23.904Z,99.90
2018-01-27T01:20:50.095Z,99.90
2018-01-27T01:23:16.311Z,99.90
2018-01-27T01:25:42.820Z,99.90
2018-01-27T01:28:09.031Z,99.90
2018-01-27T01:30:35.210Z,99.90
2018-01-27T01:33:01.465Z,99.90
2018-01-27T01:35:28.382Z,99.90
2018-01-27T01:37:54.596Z,99.90
2018-01-27T01:40:20.775Z,99.90
2018-01-27T01:45:46.415Z,99.90
2018-01-27T01:48:13.362Z,99.90
2018-01-27T01:50:39.551Z,99.90
2018-01-27T01:53:05.762Z,99.90
2018-01-27T01:55:31.944Z,99.90
2018-01-27T01:57:58.891Z,99.90
2018-01-27T02:00:32.876Z,99.90
2018-01-27T02:02:59.079Z,99.90
2018-01-27T02:05:25.258Z,99.90
2018-01-27T02:07:52.179Z,99.90
2018-01-27T02:10:18.900Z,99.90
2018-01-27T02:12:45.537Z,99.90
2018-01-27T02:15:12.176Z,99.90
2018-01-27T02:17:38.407Z,99.90
2018-01-27T02:20:04.915Z,99.90
2018-01-27T02:22:31.096Z,99.90
2018-01-27T02:24:57.300Z,99.90
2018-01-27T02:27:23.479Z,99.90
2018-01-27T02:29:49.691Z,99.90
2018-01-27T02:32:16.879Z,99.90
2018-01-27T02:34:43.091Z,99.90
2018-01-27T02:37:09.812Z,99.90
2018-01-27T02:39:36.059Z,99.90
2018-01-27T02:42:02.255Z,99.90
2018-01-27T02:44:28.520Z,99.90
2018-01-27T02:46:54.707Z,99.90
2018-01-27T02:49:20.916Z,99.90
2018-01-27T02:51:47.099Z,99.90
2018-01-27T02:54:14.055Z,99.90
2018-01-27T02:56:40.255Z,99.90
2018-01-27T02:59:07.227Z,99.90
2018-01-27T03:01:33.423Z,99.90
2018-01-27T03:03:59.639Z,99.90
2018-01-27T03:06:25.827Z,99.90
2018-01-27T03:08:52.047Z,99.90
2018-01-27T03:11:18.222Z,99.90
2018-01-27T03:13:44.399Z,99.90
2018-01-27T03:16:10.670Z,99.90
2018-01-27T03:18:36.863Z,99.90
2018-01-27T03:21:03.071Z,99.90
2018-01-27T03:23:29.999Z,99.90
2018-01-27T03:25:56.955Z,99.90
2018-01-27T03:28:23.870Z,99.90
2018-01-27T03:30:50.088Z,99.90
2018-01-27T03:33:16.318Z,99.90
2018-01-27T03:35:42.552Z,99.90
2018-01-27T03:38:08.743Z,99.90
2018-01-27T03:40:34.945Z,99.90
2018-01-27T03:43:01.895Z,99.90
2018-01-27T03:45:28.851Z,99.90
2018-01-27T03:47:55.803Z,99.90
2018-01-27T03:50:21.979Z,99.90
2018-01-27T03:52:48.650Z,99.90
2018-01-27T03:55:15.581Z,99.90
2018-01-27T03:57:43.271Z,99.90
2018-01-27T04:00:10.187Z,99.90
2018-01-27T04:02:36.571Z,99.90
2018-01-27T04:05:02.759Z,99.90
2018-01-27T04:07:28.934Z,99.90
2018-01-27T04:09:55.139Z,99.90
2018-01-27T04:12:21.315Z,99.90
2018-01-27T04:14:47.566Z,99.90
2018-01-27T04:17:13.746Z,99.90
2018-01-27T04:19:39.955Z,99.90
2018-01-27T04:22:06.131Z,99.90
2018-01-27T04:24:32.339Z,99.90
2018-01-27T04:26:58.519Z,99.90
2018-01-27T04:29:25.493Z,99.90
2018-01-27T04:31:51.674Z,99.90
2018-01-27T04:34:17.886Z,99.90
2018-01-27T04:36:44.063Z,99.90
2018-01-27T04:39:11.050Z,99.90
2018-01-27T04:41:37.236Z,99.90
2018-01-27T04:44:04.211Z,99.90
2018-01-27T04:46:30.423Z,99.90
2018-01-27T04:48:56.631Z,99.90
2018-01-27T04:51:22.856Z,99.90
2018-01-27T04:53:49.810Z,99.90
2018-01-27T04:56:16.735Z,99.90
2018-01-27T04:58:42.943Z,99.90
2018-01-27T05:01:09.126Z,99.90
2018-01-27T05:03:35.340Z,99.90
2018-01-27T05:06:02.278Z,99.90
2018-01-27T05:08:29.234Z,99.90
2018-01-27T05:10:56.183Z,99.90
2018-01-27T05:13:23.103Z,99.90
2018-01-27T05:15:49.315Z,99.90
2018-01-27T05:18:15.504Z,99.90
2018-01-27T05:20:41.711Z,99.90
2018-01-27T05:23:08.639Z,99.90
2018-01-27T05:25:34.847Z,99.90
2018-01-27T05:28:01.032Z,99.90
2018-01-27T05:30:27.243Z,99.90
2018-01-27T05:32:54.167Z,99.90
2018-01-27T05:35:20.381Z,99.90
2018-01-27T05:37:46.559Z,99.90
2018-01-27T05:40:12.771Z,99.90
2018-01-27T05:42:39.690Z,99.90
2018-01-27T05:45:05.944Z,99.90
2018-01-27T05:47:32.862Z,99.90
2018-01-27T05:49:59.075Z,99.90
2018-01-27T05:52:25.251Z,99.90
2018-01-27T05:54:52.555Z,99.90
2018-01-27T05:57:18.740Z,99.90
2018-01-27T05:59:44.923Z,99.90
2018-01-27T06:02:11.132Z,99.90
2018-01-27T06:04:37.308Z,99.90
2018-01-27T06:07:04.262Z,99.90
2018-01-27T06:09:31.187Z,99.90
2018-01-27T06:11:57.419Z,99.90
2018-01-27T06:14:23.603Z,99.90
2018-01-27T06:16:49.812Z,99.90
2018-01-27T06:19:16.015Z,99.90
2018-01-27T06:21:43.100Z,99.90
2018-01-27T06:24:09.295Z,99.90
2018-01-27T06:26:36.219Z,99.90
2018-01-27T06:29:02.433Z,99.90
2018-01-27T06:31:28.630Z,99.90
2018-01-27T06:33:54.832Z,99.90
2018-01-27T06:36:21.760Z,99.90
2018-01-27T06:38:48.199Z,99.90
2018-01-27T06:41:14.375Z,99.90
2018-01-27T06:43:40.575Z,99.90
2018-01-27T06:46:06.815Z,99.90
2018-01-27T06:48:33.084Z,99.90
2018-01-27T06:50:59.295Z,99.90
2018-01-27T06:53:25.702Z,99.90
2018-01-27T06:55:51.892Z,99.90
2018-01-27T06:58:18.068Z,99.90
2018-01-27T07:00:44.276Z,99.90
2018-01-27T07:03:11.391Z,99.90
2018-01-27T07:05:37.599Z,99.90
2018-01-27T07:08:03.844Z,99.90
2018-01-27T07:10:30.351Z,99.90
2018-01-27T07:12:56.526Z,99.90
2018-01-27T07:15:22.739Z,99.90
2018-01-27T07:17:48.928Z,99.90
2018-01-27T07:20:15.134Z,99.90
2018-01-27T07:22:42.051Z,99.90
2018-01-27T07:25:08.259Z,99.90
2018-01-27T07:27:34.436Z,99.90
2018-01-27T07:30:01.408Z,99.90
2018-01-27T07:32:27.594Z,99.90
2018-01-27T07:34:54.004Z,99.90
2018-01-27T07:37:20.183Z,99.90
2018-01-27T07:39:46.364Z,99.90
2018-01-27T07:42:12.575Z,99.90
2018-01-27T07:44:38.756Z,99.90
2018-01-27T07:47:05.746Z,99.90
2018-01-27T07:49:31.987Z,99.90
2018-01-27T07:51:58.195Z,99.90
2018-01-27T07:54:24.375Z,99.90
2018-01-27T07:56:50.583Z,99.90
2018-01-27T07:59:16.786Z,99.90
2018-01-27T08:01:42.975Z,99.90
2018-01-27T08:04:09.922Z,99.90
2018-01-27T08:06:36.847Z,99.90
2018-01-27T08:09:03.818Z,99.90
2018-01-27T08:11:30.739Z,99.90
2018-01-27T08:13:57.224Z,99.90
2018-01-27T08:16:23.409Z,99.90
2018-01-27T08:18:49.619Z,99.90
2018-01-27T08:21:15.795Z,99.90
2018-01-27T08:23:42.395Z,99.90
2018-01-27T08:26:08.608Z,99.90
2018-01-27T08:28:34.786Z,99.90
2018-01-27T08:31:01.339Z,99.90
2018-01-27T08:33:27.574Z,99.90
2018-01-27T08:35:53.791Z,99.90
2018-01-27T08:38:19.966Z,99.90
2018-01-27T08:40:47.662Z,99.90
2018-01-27T08:43:14.587Z,99.90
2018-01-27T08:45:41.639Z,99.90
2018-01-27T08:48:07.824Z,99.90
2018-01-27T08:50:34.051Z,99.90
2018-01-27T08:53:00.233Z,99.90
2018-01-27T08:55:27.164Z,99.90
2018-01-27T08:57:53.366Z,99.90
2018-01-27T09:00:19.545Z,99.90
2018-01-27T09:02:46.494Z,99.90
2018-01-27T09:05:13.415Z,99.90
2018-01-27T09:07:39.627Z,99.90
2018-01-27T09:10:05.807Z,99.90
2018-01-27T09:12:31.979Z,99.90
2018-01-27T09:14:58.187Z,99.90
2018-01-27T09:17:24.363Z,99.90
2018-01-27T09:19:51.316Z,96.40
2018-01-27T09:22:18.256Z,97.10
2018-01-27T09:24:45.206Z,94.40
2018-01-27T09:27:12.126Z,90.80
2018-01-27T09:29:38.331Z,91.20
2018-01-27T09:32:04.524Z,89.30
2018-01-27T09:34:30.735Z,88.50
2018-01-27T09:36:57.663Z,80.00
2018-01-27T09:39:24.631Z,71.40
2018-01-27T09:41:51.556Z,64.90
2018-01-27T09:44:18.199Z,63.90
2018-01-27T09:46:44.407Z,67.90
2018-01-27T09:49:10.614Z,56.70
2018-01-27T09:51:37.041Z,63.90
2018-01-27T09:54:03.256Z,55.90
2018-01-27T09:56:29.707Z,50.80
2018-01-27T09:58:55.886Z,49.50
2018-01-27T10:01:22.099Z,43.70
2018-01-27T10:03:48.283Z,46.80
2018-01-27T10:06:14.551Z,49.10
2018-01-27T10:08:40.730Z,50.80
2018-01-27T10:11:06.950Z,57.00
2018-01-27T10:13:33.131Z,54.70
2018-01-27T10:15:59.312Z,54.80
2018-01-27T10:18:25.521Z,54.80
2018-01-27T10:20:52.440Z,86.60
2018-01-27T10:23:18.648Z,86.80
2018-01-27T10:25:44.823Z,94.30
2018-01-27T10:28:11.780Z,99.90
2018-01-27T10:30:38.727Z,99.90
2018-01-27T10:33:05.687Z,99.90
2018-01-27T10:35:31.871Z,99.90
2018-01-27T10:37:58.083Z,99.90
2018-01-27T10:40:24.283Z,99.90
2018-01-27T10:42:50.819Z,99.90
2018-01-27T10:45:17.016Z,99.90
2018-01-27T10:47:43.967Z,99.90
2018-01-27T10:50:10.943Z,99.90
2018-01-27T10:52:37.427Z,99.90
2018-01-27T10:55:03.663Z,99.90
2018-01-27T10:57:30.607Z,99.90
2018-01-27T10:59:58.303Z,99.90
2018-01-27T11:02:24.496Z,99.90
2018-01-27T11:04:51.451Z,99.90
2018-01-27T11:07:18.375Z,99.90
2018-01-27T11:09:44.592Z,99.90
2018-01-27T11:12:10.770Z,97.70
2018-01-27T11:14:37.687Z,86.80
2018-01-27T11:17:03.919Z,86.00
2018-01-27T11:19:30.095Z,91.00
2018-01-27T11:21:56.306Z,89.80
2018-01-27T11:24:22.486Z,90.30
2018-01-27T11:26:48.707Z,96.30
2018-01-27T11:29:14.887Z,98.90
2018-01-27T11:31:41.839Z,94.60
2018-01-27T11:34:08.015Z,94.80
2018-01-27T11:36:34.231Z,90.30
2018-01-27T11:39:00.415Z,64.00
2018-01-27T11:41:27.363Z,64.50
2018-01-27T11:43:53.548Z,63.80
2018-01-27T11:46:19.768Z,54.60
2018-01-27T11:48:45.983Z,53.00
2018-01-27T11:51:12.196Z,67.90
2018-01-27T11:53:38.391Z,75.50
2018-01-27T11:56:05.371Z,53.80
2018-01-27T11:58:31.555Z,53.10
2018-01-27T12:00:57.771Z,64.70
2018-01-27T12:03:23.967Z,90.60
2018-01-27T12:05:50.415Z,96.40
2018-01-27T12:08:16.599Z,87.80
2018-01-27T12:10:43.520Z,95.90
2018-01-27T12:13:09.727Z,95.90
2018-01-27T12:15:35.912Z,90.60
2018-01-27T12:18:02.127Z,90.70
2018-01-27T12:20:29.071Z,98.80
2018-01-27T12:22:56.030Z,99.10
2018-01-27T12:25:22.210Z,98.80
2018-01-27T12:27:48.428Z,99.20
2018-01-27T12:30:14.644Z,93.30
2018-01-27T12:32:40.893Z,97.50
2018-01-27T12:35:07.075Z,92.80
2018-01-27T12:37:33.283Z,99.90
2018-01-27T12:40:00.207Z,99.90
2018-01-27T12:42:26.415Z,99.90
2018-01-27T12:44:52.591Z,99.90
2018-01-27T12:47:19.583Z,99.90
2018-01-27T12:49:45.826Z,99.90
2018-01-27T12:52:12.044Z,99.90
2018-01-27T12:54:38.223Z,99.90
2018-01-27T12:57:05.174Z,99.90
2018-01-27T12:59:32.128Z,99.90
2018-01-27T13:01:58.684Z,99.90
2018-01-27T13:04:24.895Z,99.90
2018-01-27T13:06:51.117Z,99.90
2018-01-27T13:09:18.389Z,99.90
2018-01-27T13:11:44.878Z,99.90
2018-01-27T13:14:11.836Z,99.90
2018-01-27T13:16:39.171Z,99.90
2018-01-27T13:19:05.716Z,99.90
2018-01-27T13:21:32.241Z,99.90
2018-01-27T13:23:58.892Z,99.90
2018-01-27T13:26:25.832Z,99.90
2018-01-27T13:28:52.473Z,99.90
2018-01-27T13:31:19.212Z,99.90
2018-01-27T13:33:45.503Z,99.90
2018-01-27T13:36:12.076Z,99.90
2018-01-27T13:38:38.310Z,99.90
2018-01-27T13:41:04.518Z,99.90
2018-01-27T13:43:30.700Z,99.90
2018-01-27T13:45:56.911Z,99.90
2018-01-27T13:48:23.864Z,99.90
2018-01-27T13:50:50.831Z,99.90
2018-01-27T13:53:17.011Z,99.90
2018-01-27T13:55:43.219Z,99.90
2018-01-27T13:58:09.394Z,99.90
2018-01-27T14:00:36.348Z,99.90
2018-01-27T14:03:03.323Z,99.90
2018-01-27T14:05:29.526Z,99.90
2018-01-27T14:07:55.707Z,99.90
2018-01-27T14:10:21.910Z,99.90
2018-01-27T14:12:48.091Z,99.90
2018-01-27T14:15:15.043Z,99.90
2018-01-27T14:17:42.204Z,99.90
2018-01-27T14:20:09.151Z,99.90
2018-01-27T14:22:36.076Z,99.90
2018-01-27T14:25:02.286Z,99.90
2018-01-27T14:27:28.505Z,99.90
2018-01-27T14:29:54.723Z,99.90
2018-01-27T14:32:20.949Z,99.90
2018-01-27T14:34:47.162Z,99.90
2018-01-27T14:37:13.381Z,99.90
2018-01-27T14:39:39.587Z,99.90
2018-01-27T14:42:06.499Z,99.90
2018-01-27T14:44:32.703Z,99.90
2018-01-27T14:46:58.875Z,99.90
2018-01-27T14:49:25.115Z,99.90
2018-01-27T14:51:52.032Z,99.90
2018-01-27T14:54:18.254Z,99.90
2018-01-27T14:56:44.479Z,99.90
2018-01-27T14:59:10.691Z,99.90
2018-01-27T15:01:36.867Z,99.90
2018-01-27T15:04:03.075Z,99.90
2018-01-27T15:06:29.256Z,99.90
2018-01-27T15:08:55.624Z,99.90
2018-01-27T15:11:21.799Z,99.90
2018-01-27T15:13:48.719Z,99.90
2018-01-27T15:16:14.931Z,99.90
2018-01-27T15:18:41.148Z,99.90
2018-01-27T15:21:07.362Z,99.90
2018-01-27T15:23:33.542Z,99.90
2018-01-27T15:25:59.815Z,99.90
2018-01-27T15:28:25.986Z,99.90
2018-01-27T15:30:52.635Z,99.90
2018-01-27T15:33:18.827Z,99.90
2018-01-27T15:35:45.033Z,99.90
2018-01-27T15:38:11.256Z,99.90
2018-01-27T15:40:37.458Z,99.90
2018-01-27T15:43:03.635Z,99.90
2018-01-27T15:45:29.839Z,99.90
2018-01-27T15:47:56.112Z,99.90
2018-01-27T15:50:22.319Z,99.90
2018-01-27T15:52:48.495Z,99.90
2018-01-27T15:55:14.679Z,99.90
2018-01-27T15:57:40.942Z,99.90
2018-01-27T16:00:07.199Z,99.90
2018-01-27T16:02:34.144Z,99.90
2018-01-27T16:05:01.064Z,99.90
2018-01-27T16:07:27.327Z,99.90
2018-01-27T16:09:54.247Z,99.90
2018-01-27T16:12:20.455Z,99.90
2018-01-27T16:14:46.719Z,99.90
2018-01-27T16:17:13.639Z,99.90
2018-01-27T16:19:39.851Z,99.90
2018-01-27T16:22:06.035Z,99.90
2018-01-27T16:24:32.983Z,99.90
2018-01-27T16:26:59.956Z,99.90
2018-01-27T16:29:26.167Z,99.90
2018-01-27T16:31:52.389Z,99.90
2018-01-27T16:34:18.599Z,99.90
2018-01-27T16:36:45.539Z,99.90
2018-01-27T16:39:18.692Z,99.90
2018-01-27T16:41:44.893Z,99.90
2018-01-27T16:44:11.174Z,99.90
2018-01-27T16:46:37.431Z,99.90
2018-01-27T16:49:04.697Z,99.90
2018-01-27T16:51:30.939Z,99.90
2018-01-27T16:53:57.192Z,99.90
2018-01-27T16:56:23.509Z,99.90
2018-01-27T16:58:49.730Z,99.90
2018-01-27T17:01:16.013Z,99.90
2018-01-27T17:03:42.991Z,99.90
2018-01-27T17:06:09.258Z,99.90
2018-01-27T17:08:35.483Z,99.90
2018-01-27T17:11:01.736Z,99.90
2018-01-27T17:13:27.956Z,99.90
2018-01-27T17:15:54.167Z,99.90
2018-01-27T17:18:20.339Z,99.90
2018-01-27T17:20:46.598Z,99.90
2018-01-27T17:23:13.520Z,99.90
2018-01-27T17:25:40.518Z,99.90
2018-01-27T17:28:06.842Z,99.90
2018-01-27T17:30:33.055Z,99.90
2018-01-27T17:32:59.235Z,99.90
2018-01-27T17:35:25.443Z,99.90
2018-01-27T17:37:51.640Z,99.90
2018-01-27T17:40:17.847Z,99.90
2018-01-27T17:42:44.771Z,99.90
2018-01-27T17:45:11.032Z,99.90
2018-01-27T17:47:37.199Z,99.90
2018-01-27T17:50:03.555Z,99.90
2018-01-27T17:52:29.786Z,99.90
2018-01-27T17:54:56.071Z,99.90
2018-01-27T17:57:22.268Z,99.90
2018-01-27T17:59:49.219Z,99.90
2018-01-27T18:02:16.218Z,99.90
2018-01-27T18:04:42.395Z,99.90
2018-01-27T18:07:10.194Z,99.90
2018-01-27T18:09:36.427Z,99.90
2018-01-27T18:12:02.639Z,99.90
2018-01-27T18:14:29.419Z,99.90
2018-01-27T18:16:55.635Z,99.90
2018-01-27T18:19:21.866Z,99.90
2018-01-27T18:21:48.139Z,99.90
2018-01-27T18:24:15.119Z,99.90
2018-01-27T18:26:41.299Z,99.90
2018-01-27T18:29:07.549Z,99.90
2018-01-27T18:31:34.527Z,99.90
2018-01-27T18:34:00.799Z,99.90
2018-01-27T18:36:27.026Z,99.90
2018-01-27T18:38:53.717Z,99.90
2018-01-27T18:41:19.952Z,99.90
2018-01-27T18:43:46.235Z,99.90
2018-01-27T18:46:12.427Z,99.90
2018-01-27T18:48:38.671Z,99.90
2018-01-27T18:51:04.850Z,99.90
2018-01-27T18:53:31.851Z,99.90
2018-01-27T18:55:58.031Z,99.90
2018-01-27T18:58:24.984Z,99.90
2018-01-27T19:00:51.194Z,99.90
2018-01-27T19:03:18.143Z,99.90
2018-01-27T19:05:45.119Z,99.90
2018-01-27T19:08:11.383Z,99.90
2018-01-27T19:10:37.654Z,99.90
2018-01-27T19:13:04.579Z,99.90
2018-01-27T19:15:30.787Z,99.90
2018-01-27T19:17:57.123Z,99.90
2018-01-27T19:20:24.103Z,99.90
2018-01-27T19:22:51.070Z,99.90
2018-01-27T19:25:17.330Z,99.90
2018-01-27T19:27:43.512Z,99.90
2018-01-27T19:30:10.464Z,99.90
2018-01-27T19:32:37.383Z,99.90
2018-01-27T19:35:03.664Z,99.90
2018-01-27T19:37:30.611Z,99.90
2018-01-27T19:39:56.819Z,99.90
2018-01-27T19:42:22.999Z,99.90
2018-01-27T19:44:49.259Z,99.90
2018-01-27T19:47:16.242Z,99.90
2018-01-27T19:49:42.483Z,99.90
2018-01-27T19:52:09.045Z,99.90
2018-01-27T19:54:35.350Z,99.90
2018-01-27T19:57:01.523Z,99.90
2018-01-27T19:59:27.786Z,99.90
2018-01-27T20:01:54.022Z,99.90
2018-01-27T20:04:20.363Z,99.90
2018-01-27T20:06:46.589Z,99.90
2018-01-27T20:09:12.850Z,99.90
2018-01-27T20:11:39.082Z,99.90
2018-01-27T20:14:05.435Z,99.90
2018-01-27T20:16:32.410Z,99.90
2018-01-27T20:18:58.665Z,99.90
2018-01-27T20:21:24.885Z,99.90
2018-01-27T20:23:51.094Z,99.90
2018-01-27T20:26:17.375Z,99.90
2018-01-27T20:28:43.666Z,99.90
2018-01-27T20:31:09.893Z,99.90
2018-01-27T20:33:36.118Z,99.90
2018-01-27T20:36:02.376Z,99.90
2018-01-27T20:38:28.555Z,99.90
2018-01-27T20:40:55.554Z,99.90
2018-01-27T20:43:21.802Z,99.90
2018-01-27T20:45:48.063Z,99.90
2018-01-27T20:48:15.036Z,99.90
2018-01-27T20:50:41.346Z,99.90
2018-01-27T20:53:08.333Z,99.90
2018-01-27T20:55:34.610Z,99.90
2018-01-27T20:58:01.536Z,99.90
2018-01-27T21:00:27.820Z,99.90
2018-01-27T21:02:53.999Z,99.90
2018-01-27T21:05:20.230Z,99.90
2018-01-27T21:07:46.437Z,99.90
2018-01-27T21:10:12.747Z,99.90
2018-01-27T21:12:39.108Z,99.90
2018-01-27T21:15:05.338Z,99.90
2018-01-27T21:17:38.454Z,99.90
2018-01-27T21:20:05.454Z,99.90
2018-01-27T21:22:31.654Z,99.90
2018-01-27T21:24:57.883Z,99.90
2018-01-27T21:27:24.142Z,99.90
2018-01-27T21:29:50.380Z,99.90
2018-01-27T21:32:16.587Z,99.90
2018-01-27T21:34:42.768Z,99.90
2018-01-27T21:37:08.979Z,99.90
2018-01-27T21:39:35.278Z,99.90
2018-01-27T21:42:01.542Z,99.90
2018-01-27T21:44:27.719Z,99.90
2018-01-27T21:46:54.006Z,99.90
2018-01-27T21:49:20.306Z,99.90
2018-01-27T21:51:46.524Z,99.90
2018-01-27T21:54:12.750Z,99.90
2018-01-27T21:56:39.019Z,99.90
2018-01-27T21:59:05.250Z,99.90
2018-01-27T22:01:31.454Z,99.90
2018-01-27T22:03:57.682Z,99.90
2018-01-27T22:06:24.020Z,99.90
2018-01-27T22:08:50.195Z,99.90
2018-01-27T22:11:17.108Z,99.90
2018-01-27T22:13:43.370Z,99.90
2018-01-27T22:16:10.295Z,99.90
2018-01-27T22:18:36.553Z,99.90
2018-01-27T22:21:03.523Z,99.90
2018-01-27T22:23:29.790Z,99.90
2018-01-27T22:25:56.022Z,99.90
2018-01-27T22:28:22.318Z,99.90
2018-01-27T22:30:48.550Z,99.90
2018-01-27T22:33:14.804Z,99.90
2018-01-27T22:35:41.036Z,99.90
2018-01-27T22:38:07.247Z,99.90
2018-01-27T22:40:33.474Z,99.90
2018-01-27T22:42:59.678Z,99.90
2018-01-27T22:45:25.909Z,99.90
2018-01-27T22:47:52.144Z,99.90
2018-01-27T22:50:18.402Z,99.90
2018-01-27T22:52:44.666Z,99.90
2018-01-27T22:55:11.592Z,99.90
2018-01-27T22:57:37.771Z,99.90
2018-01-27T23:00:04.031Z,99.90
2018-01-27T23:02:30.207Z,99.90
2018-01-27T23:04:57.202Z,99.90
2018-01-27T23:07:23.431Z,99.90
2018-01-27T23:09:49.677Z,99.90
2018-01-27T23:12:15.892Z,99.90
2018-01-27T23:14:42.155Z,99.90
2018-01-27T23:17:09.139Z,99.90
2018-01-27T23:19:35.398Z,99.90
2018-01-27T23:22:01.578Z,99.90
2018-01-27T23:24:28.577Z,99.90
2018-01-27T23:26:55.544Z,99.90
2018-01-27T23:29:21.806Z,99.90
2018-01-27T23:31:48.727Z,99.90
2018-01-27T23:34:15.132Z,99.90
2018-01-27T23:36:41.352Z,99.90
2018-01-27T23:39:07.527Z,99.90
2018-01-27T23:41:34.476Z,99.90
2018-01-27T23:44:01.419Z,99.90
2018-01-27T23:46:27.673Z,99.90
2018-01-27T23:48:53.879Z,99.90
2018-01-27T23:51:20.828Z,99.90
2018-01-27T23:53:47.809Z,99.90
2018-01-27T23:56:13.987Z,99.90
2018-01-27T23:58:40.187Z,99.90
